sensor_id;sensor_type;location;lat;lon;timestamp;pressure;altitude;pressure_sealevel;temperature;humidity
19086;BME280;9675;51.538;6.728;2022-10-16T04:01:50;100787.97;;;13.92;100.00
19086;BME280;9675;51.538;6.728;2022-10-16T04:04:20;100788.84;;;13.92;100.00
19086;BME280;9675;51.538;6.728;2022-10-16T04:06:47;100780.13;;;13.90;100.00
19086;BME280;9675;51.538;6.728;2022-10-16T04:09:14;100776.72;;;13.91;100.00
19086;BME280;9675;51.538;6.728;2022-10-16T04:11:41;100791.38;;;13.91;100.00
19086;BME280;9675;51.538;6.728;2022-10-16T04:14:08;100792.16;;;13.88;100.00
19086;BME280;9675;51.538;6.728;2022-10-16T04:16:35;100791.31;;;13.89;100.00
19086;BME280;9675;51.538;6.728;2022-10-16T04:19:04;100793.91;;;13.89;100.00
19086;BME280;9675;51.538;6.728;2022-10-16T04:21:31;100800.75;;;13.87;100.00
19086;BME280;9675;51.538;6.728;2022-10-16T04:23:58;100793.91;;;13.89;100.00
19086;BME280;9675;51.538;6.728;2022-10-16T04:26:25;100793.91;;;13.89;100.00
19086;BME280;9675;51.538;6.728;2022-10-16T04:28:52;100806.75;;;13.86;100.00
19086;BME280;9675;51.538;6.728;2022-10-16T04:31:20;100816.28;;;13.87;100.00
19086;BME280;9675;51.538;6.728;2022-10-16T04:33:47;100809.34;;;13.86;100.00
19086;BME280;9675;51.538;6.728;2022-10-16T04:36:15;100805.84;;;13.86;100.00
19086;BME280;9675;51.538;6.728;2022-10-16T04:38:42;100822.22;;;13.85;100.00
19086;BME280;9675;51.538;6.728;2022-10-16T04:41:09;100821.31;;;13.84;100.00
19086;BME280;9675;51.538;6.728;2022-10-16T04:43:36;100825.63;;;13.84;100.00
19086;BME280;9675;51.538;6.728;2022-10-16T04:46:03;100831.69;;;13.84;100.00
19086;BME280;9675;51.538;6.728;2022-10-16T04:48:31;100838.53;;;13.82;100.00
19086;BME280;9675;51.538;6.728;2022-10-16T04:50:58;100834.25;;;13.83;100.00
19086;BME280;9675;51.538;6.728;2022-10-16T04:53:27;100841.13;;;13.82;100.00
19086;BME280;9675;51.538;6.728;2022-10-16T04:55:54;100840.16;;;13.80;100.00
19086;BME280;9675;51.538;6.728;2022-10-16T04:58:21;100835.00;;;13.80;100.00
19086;BME280;9675;51.538;6.728;2022-10-16T05:00:48;100843.72;;;13.82;100.00
19086;BME280;9675;51.538;6.728;2022-10-16T05:03:15;100841.81;;;13.78;100.00
19086;BME280;9675;51.538;6.728;2022-10-16T05:05:44;100851.41;;;13.81;100.00
19086;BME280;9675;51.538;6.728;2022-10-16T05:08:12;100845.34;;;13.80;100.00
19086;BME280;9675;51.538;6.728;2022-10-16T05:10:44;100841.88;;;13.80;100.00
19086;BME280;9675;51.538;6.728;2022-10-16T05:13:11;100851.34;;;13.79;100.00
19086;BME280;9675;51.538;6.728;2022-10-16T05:15:39;100849.41;;;13.74;100.00
19086;BME280;9675;51.538;6.728;2022-10-16T05:18:06;100859.81;;;13.75;100.00
19086;BME280;9675;51.538;6.728;2022-10-16T05:20:33;100859.00;;;13.76;100.00
19086;BME280;9675;51.538;6.728;2022-10-16T05:23:00;100856.47;;;13.78;100.00
19086;BME280;9675;51.538;6.728;2022-10-16T05:25:28;100871.16;;;13.79;100.00
19086;BME280;9675;51.538;6.728;2022-10-16T05:27:56;100873.72;;;13.77;100.00
19086;BME280;9675;51.538;6.728;2022-10-16T05:30:23;100871.00;;;13.74;100.00
19086;BME280;9675;51.538;6.728;2022-10-16T05:32:51;100862.41;;;13.75;100.00
19086;BME280;9675;51.538;6.728;2022-10-16T05:35:19;100871.94;;;13.76;100.00
19086;BME280;9675;51.538;6.728;2022-10-16T05:37:46;100871.13;;;13.77;100.00
19086;BME280;9675;51.538;6.728;2022-10-16T05:40:14;100881.47;;;13.77;100.00
19086;BME280;9675;51.538;6.728;2022-10-16T05:42:42;100887.47;;;13.76;100.00
19086;BME280;9675;51.538;6.728;2022-10-16T05:45:11;100883.00;;;13.72;100.00
19086;BME280;9675;51.538;6.728;2022-10-16T05:47:39;100879.56;;;13.73;100.00
19086;BME280;9675;51.538;6.728;2022-10-16T05:50:07;100883.00;;;13.72;100.00
19086;BME280;9675;51.538;6.728;2022-10-16T05:52:34;100887.16;;;13.69;100.00
19086;BME280;9675;51.538;6.728;2022-10-16T05:55:02;100892.41;;;13.70;100.00
19086;BME280;9675;51.538;6.728;2022-10-16T05:57:29;100908.91;;;13.72;100.00
19086;BME280;9675;51.538;6.728;2022-10-16T05:59:56;100903.72;;;13.72;100.00
19086;BME280;9675;51.538;6.728;2022-10-16T06:02:25;100912.22;;;13.70;100.00
19086;BME280;9675;51.538;6.728;2022-10-16T06:04:52;100918.22;;;13.69;100.00
19086;BME280;9675;51.538;6.728;2022-10-16T06:07:20;100914.75;;;13.68;100.00
19086;BME280;9675;51.538;6.728;2022-10-16T06:09:48;100921.66;;;13.68;100.00
19086;BME280;9675;51.538;6.728;2022-10-16T06:12:16;100915.59;;;13.67;100.00
19086;BME280;9675;51.538;6.728;2022-10-16T06:14:44;100913.84;;;13.66;100.00
19086;BME280;9675;51.538;6.728;2022-10-16T06:17:12;100928.47;;;13.66;100.00
19086;BME280;9675;51.538;6.728;2022-10-16T06:19:40;100921.47;;;13.63;100.00
19086;BME280;9675;51.538;6.728;2022-10-16T06:22:08;100929.22;;;13.63;100.00
19086;BME280;9675;51.538;6.728;2022-10-16T06:24:35;100927.47;;;13.62;100.00
19086;BME280;9675;51.538;6.728;2022-10-16T06:27:03;100932.66;;;13.62;100.00
19086;BME280;9675;51.538;6.728;2022-10-16T06:29:30;100943.00;;;13.62;100.00
19086;BME280;9675;51.538;6.728;2022-10-16T06:31:57;100949.06;;;13.63;100.00
19086;BME280;9675;51.538;6.728;2022-10-16T06:34:24;100944.75;;;13.63;100.00
19086;BME280;9675;51.538;6.728;2022-10-16T06:36:52;100944.75;;;13.63;100.00
19086;BME280;9675;51.538;6.728;2022-10-16T06:39:19;100956.75;;;13.61;100.00
19086;BME280;9675;51.538;6.728;2022-10-16T06:41:46;100955.00;;;13.60;100.00
19086;BME280;9675;51.538;6.728;2022-10-16T06:44:14;100960.97;;;13.59;100.00
19086;BME280;9675;51.538;6.728;2022-10-16T06:46:42;100960.16;;;13.60;100.00
19086;BME280;9675;51.538;6.728;2022-10-16T06:49:09;100975.69;;;13.60;100.00
19086;BME280;9675;51.538;6.728;2022-10-16T06:51:36;100979.09;;;13.59;100.00
19086;BME280;9675;51.538;6.728;2022-10-16T06:54:08;100979.09;;;13.59;100.00
19086;BME280;9675;51.538;6.728;2022-10-16T06:56:35;100998.88;;;13.57;100.00
19086;BME280;9675;51.538;6.728;2022-10-16T06:59:03;100996.28;;;13.57;100.00
19086;BME280;9675;51.538;6.728;2022-10-16T07:01:30;101007.47;;;13.57;100.00
19086;BME280;9675;51.538;6.728;2022-10-16T07:03:57;101010.97;;;13.58;100.00
19086;BME280;9675;51.538;6.728;2022-10-16T07:06:27;101019.50;;;13.55;100.00
19086;BME280;9675;51.538;6.728;2022-10-16T07:08:54;101022.91;;;13.54;100.00
19086;BME280;9675;51.538;6.728;2022-10-16T07:11:23;101032.38;;;13.54;100.00
19086;BME280;9675;51.538;6.728;2022-10-16T07:13:51;101030.59;;;13.53;100.00
19086;BME280;9675;51.538;6.728;2022-10-16T07:16:21;101037.53;;;13.54;100.00
19086;BME280;9675;51.538;6.728;2022-10-16T07:18:49;101038.44;;;13.54;100.00
19086;BME280;9675;51.538;6.728;2022-10-16T07:21:19;101033.19;;;13.53;100.00
19086;BME280;9675;51.538;6.728;2022-10-16T07:23:50;101036.66;;;13.53;100.00
19086;BME280;9675;51.538;6.728;2022-10-16T07:26:18;101036.53;;;13.50;100.00
19086;BME280;9675;51.538;6.728;2022-10-16T07:28:46;101045.31;;;13.54;100.00
19086;BME280;9675;51.538;6.728;2022-10-16T07:31:15;101043.53;;;13.53;100.00
19086;BME280;9675;51.538;6.728;2022-10-16T07:33:44;101046.06;;;13.51;100.00
19086;BME280;9675;51.538;6.728;2022-10-16T07:36:13;101051.19;;;13.50;100.00
19086;BME280;9675;51.538;6.728;2022-10-16T07:38:41;101046.88;;;13.50;100.00
19086;BME280;9675;51.538;6.728;2022-10-16T07:41:12;101058.94;;;13.50;100.00
19086;BME280;9675;51.538;6.728;2022-10-16T07:43:39;101071.00;;;13.49;100.00
19086;BME280;9675;51.538;6.728;2022-10-16T07:46:08;101066.81;;;13.53;100.00
19086;BME280;9675;51.538;6.728;2022-10-16T07:48:35;101078.03;;;13.53;100.00
19086;BME280;9675;51.538;6.728;2022-10-16T07:51:05;101082.34;;;13.53;100.00
19086;BME280;9675;51.538;6.728;2022-10-16T07:53:32;101086.63;;;13.52;100.00
19086;BME280;9675;51.538;6.728;2022-10-16T07:56:01;101091.94;;;13.55;100.00
19086;BME280;9675;51.538;6.728;2022-10-16T07:58:29;101090.25;;;13.56;100.00
19086;BME280;9675;51.538;6.728;2022-10-16T08:00:57;101092.94;;;13.59;100.00
19086;BME280;9675;51.538;6.728;2022-10-16T08:03:26;101089.66;;;13.63;100.00
19086;BME280;9675;51.538;6.728;2022-10-16T08:05:53;101096.75;;;13.67;100.00
19086;BME280;9675;51.538;6.728;2022-10-16T08:08:20;101102.84;;;13.69;100.00
19086;BME280;9675;51.538;6.728;2022-10-16T08:10:47;101108.97;;;13.71;100.00
19086;BME280;9675;51.538;6.728;2022-10-16T08:13:14;101112.50;;;13.73;100.00
19086;BME280;9675;51.538;6.728;2022-10-16T08:15:41;101126.41;;;13.75;100.00
19086;BME280;9675;51.538;6.728;2022-10-16T08:18:10;101125.69;;;13.79;100.00
19086;BME280;9675;51.538;6.728;2022-10-16T08:20:40;101122.38;;;13.82;100.00
19086;BME280;9675;51.538;6.728;2022-10-16T08:23:09;101134.69;;;13.87;100.00
19086;BME280;9675;51.538;6.728;2022-10-16T08:25:37;101149.56;;;13.93;100.00
19086;BME280;9675;51.538;6.728;2022-10-16T08:28:05;101142.88;;;13.98;100.00
19086;BME280;9675;51.538;6.728;2022-10-16T08:30:33;101149.00;;;14.00;100.00
19086;BME280;9675;51.538;6.728;2022-10-16T08:33:01;101150.13;;;14.07;100.00
19086;BME280;9675;51.538;6.728;2022-10-16T08:35:28;101148.59;;;14.12;100.00
19086;BME280;9675;51.538;6.728;2022-10-16T08:37:56;101154.03;;;14.18;100.00
19086;BME280;9675;51.538;6.728;2022-10-16T08:40:26;101154.28;;;14.24;100.00
19086;BME280;9675;51.538;6.728;2022-10-16T08:43:21;101170.94;;;14.30;100.00
19086;BME280;9675;51.538;6.728;2022-10-16T08:46:30;101166.97;;;14.38;100.00
19086;BME280;9675;51.538;6.728;2022-10-16T08:49:03;101172.44;;;14.46;100.00
19086;BME280;9675;51.538;6.728;2022-10-16T08:51:34;101169.22;;;14.52;100.00
19086;BME280;9675;51.538;6.728;2022-10-16T08:54:06;101162.47;;;14.55;100.00
19086;BME280;9675;51.538;6.728;2022-10-16T08:56:39;101172.28;;;14.64;100.00
19086;BME280;9675;51.538;6.728;2022-10-16T08:59:10;101177.78;;;14.71;100.00
19086;BME280;9675;51.538;6.728;2022-10-16T09:01:41;101185.75;;;14.77;100.00
19086;BME280;9675;51.538;6.728;2022-10-16T09:04:46;101189.53;;;14.85;100.00
19086;BME280;9675;51.538;6.728;2022-10-16T09:07:23;101187.13;;;14.90;100.00
19086;BME280;9675;51.538;6.728;2022-10-16T09:10:19;101184.03;;;15.00;100.00
19086;BME280;9675;51.538;6.728;2022-10-16T09:12:56;101192.09;;;15.08;100.00
19086;BME280;9675;51.538;6.728;2022-10-16T09:15:36;101201.06;;;15.16;100.00
19086;BME280;9675;51.538;6.728;2022-10-16T09:18:15;101206.50;;;15.23;100.00
19086;BME280;9675;51.538;6.728;2022-10-16T09:20:51;101191.22;;;15.31;100.00
19086;BME280;9675;51.538;6.728;2022-10-16T09:23:24;101184.41;;;15.33;100.00
19086;BME280;9675;51.538;6.728;2022-10-16T09:25:55;101203.03;;;15.47;100.00
19086;BME280;9675;51.538;6.728;2022-10-16T09:28:22;101205.84;;;15.51;100.00
19086;BME280;9675;51.538;6.728;2022-10-16T09:30:50;101202.72;;;15.61;100.00
19086;BME280;9675;51.538;6.728;2022-10-16T09:33:20;101197.75;;;15.67;100.00
19086;BME280;9675;51.538;6.728;2022-10-16T09:35:50;101204.94;;;15.75;100.00
19086;BME280;9675;51.538;6.728;2022-10-16T09:38:25;101199.09;;;15.82;100.00
19086;BME280;9675;51.538;6.728;2022-10-16T09:40:56;101205.44;;;15.90;100.00
19086;BME280;9675;51.538;6.728;2022-10-16T09:43:28;101202.22;;;15.97;100.00
19086;BME280;9675;51.538;6.728;2022-10-16T09:46:02;101209.31;;;16.02;100.00
19086;BME280;9675;51.538;6.728;2022-10-16T09:48:37;101203.56;;;16.11;100.00
19086;BME280;9675;51.538;6.728;2022-10-16T09:51:16;101206.34;;;16.17;100.00
19086;BME280;9675;51.538;6.728;2022-10-16T09:53:47;101207.50;;;16.25;100.00
19086;BME280;9675;51.538;6.728;2022-10-16T09:56:24;101203.53;;;16.36;100.00
19086;BME280;9675;51.538;6.728;2022-10-16T09:58:53;101208.94;;;16.42;100.00
19086;BME280;9675;51.538;6.728;2022-10-16T10:01:25;101214.41;;;16.51;100.00
19086;BME280;9675;51.538;6.728;2022-10-16T10:03:57;101217.31;;;16.61;100.00
19086;BME280;9675;51.538;6.728;2022-10-16T10:06:31;101211.47;;;16.68;100.00
19086;BME280;9675;51.538;6.728;2022-10-16T10:09:13;101203.06;;;16.76;100.00
19086;BME280;9675;51.538;6.728;2022-10-16T10:11:50;101211.25;;;16.88;100.00
19086;BME280;9675;51.538;6.728;2022-10-16T10:14:31;101202.88;;;16.98;100.00
19086;BME280;9675;51.538;6.728;2022-10-16T10:17:14;101203.13;;;17.08;100.00
19086;BME280;9675;51.538;6.728;2022-10-16T10:19:48;101205.25;;;17.21;100.00
19086;BME280;9675;51.538;6.728;2022-10-16T10:22:32;101203.94;;;17.36;100.00
19086;BME280;9675;51.538;6.728;2022-10-16T10:25:45;101212.94;;;17.48;100.00
19086;BME280;9675;51.538;6.728;2022-10-16T10:28:53;101217.53;;;17.56;100.00
19086;BME280;9675;51.538;6.728;2022-10-16T10:31:29;101217.84;;;17.67;100.00
19086;BME280;9675;51.538;6.728;2022-10-16T10:34:21;101211.97;;;17.74;100.00
19086;BME280;9675;51.538;6.728;2022-10-16T10:37:01;101222.72;;;17.86;100.00
19086;BME280;9675;51.538;6.728;2022-10-16T10:39:38;101228.19;;;17.97;100.00
19086;BME280;9675;51.538;6.728;2022-10-16T10:42:21;101221.53;;;18.08;100.00
19086;BME280;9675;51.538;6.728;2022-10-16T10:45:18;101226.25;;;18.24;100.00
19086;BME280;9675;51.538;6.728;2022-10-16T10:48:05;101227.34;;;18.32;100.00
19086;BME280;9675;51.538;6.728;2022-10-16T10:50:43;101228.38;;;18.39;100.00
19086;BME280;9675;51.538;6.728;2022-10-16T10:53:32;101225.16;;;18.49;100.00
19086;BME280;9675;51.538;6.728;2022-10-16T10:56:18;101231.53;;;18.60;100.00
19086;BME280;9675;51.538;6.728;2022-10-16T10:59:28;101223.03;;;18.68;100.00
19086;BME280;9675;51.538;6.728;2022-10-16T11:02:04;101226.78;;;18.81;100.00
19086;BME280;9675;51.538;6.728;2022-10-16T11:07:57;101233.34;;;19.03;100.00
19086;BME280;9675;51.538;6.728;2022-10-16T11:10:30;101236.22;;;19.15;100.00
19086;BME280;9675;51.538;6.728;2022-10-16T11:13:15;101233.84;;;19.26;100.00
19086;BME280;9675;51.538;6.728;2022-10-16T11:15:48;101229.69;;;19.35;100.00
19086;BME280;9675;51.538;6.728;2022-10-16T11:18:24;101233.44;;;19.46;100.00
19086;BME280;9675;51.538;6.728;2022-10-16T11:20:56;101231.78;;;19.51;100.00
19086;BME280;9675;51.538;6.728;2022-10-16T11:23:29;101233.59;;;19.56;100.00
19086;BME280;9675;51.538;6.728;2022-10-16T11:26:04;101232.88;;;19.64;100.00
19086;BME280;9675;51.538;6.728;2022-10-16T11:28:37;101237.44;;;19.73;100.00
19086;BME280;9675;51.538;6.728;2022-10-16T11:31:14;101232.34;;;19.82;100.00
19086;BME280;9675;51.538;6.728;2022-10-16T11:33:49;101242.09;;;19.90;100.00
19086;BME280;9675;51.538;6.728;2022-10-16T11:36:23;101243.25;;;20.05;100.00
19086;BME280;9675;51.538;6.728;2022-10-16T11:39:00;101239.00;;;20.13;100.00
19086;BME280;9675;51.538;6.728;2022-10-16T11:41:36;101235.66;;;20.21;100.00
19086;BME280;9675;51.538;6.728;2022-10-16T11:44:21;101243.59;;;20.27;100.00
19086;BME280;9675;51.538;6.728;2022-10-16T11:47:08;101245.38;;;20.28;100.00
19086;BME280;9675;51.538;6.728;2022-10-16T11:49:40;101243.78;;;20.36;100.00
19086;BME280;9675;51.538;6.728;2022-10-16T11:52:16;101244.78;;;20.43;100.00
19086;BME280;9675;51.538;6.728;2022-10-16T11:54:51;101249.25;;;20.50;100.00
19086;BME280;9675;51.538;6.728;2022-10-16T11:57:24;101249.31;;;20.55;100.00
19086;BME280;9675;51.538;6.728;2022-10-16T11:59:58;101261.66;;;20.62;100.00
19086;BME280;9675;51.538;6.728;2022-10-16T12:02:43;101255.66;;;20.70;100.00
19086;BME280;9675;51.538;6.728;2022-10-16T12:05:24;101262.78;;;20.77;100.00
19086;BME280;9675;51.538;6.728;2022-10-16T12:08:07;101266.28;;;20.79;100.00
19086;BME280;9675;51.538;6.728;2022-10-16T12:10:38;101274.16;;;20.81;100.00
19086;BME280;9675;51.538;6.728;2022-10-16T12:13:31;101273.31;;;20.84;100.00
19086;BME280;9675;51.538;6.728;2022-10-16T12:16:07;101275.13;;;20.88;100.00
19086;BME280;9675;51.538;6.728;2022-10-16T12:18:47;101269.94;;;20.91;100.00
19086;BME280;9675;51.538;6.728;2022-10-16T12:21:17;101275.16;;;20.91;100.00
19086;BME280;9675;51.538;6.728;2022-10-16T12:23:51;101264.69;;;20.91;100.00
19086;BME280;9675;51.538;6.728;2022-10-16T12:26:29;101272.56;;;20.92;100.00
19086;BME280;9675;51.538;6.728;2022-10-16T12:29:13;101263.78;;;20.87;97.77
19086;BME280;9675;51.538;6.728;2022-10-16T12:31:45;101261.19;;;20.90;100.00
19086;BME280;9675;51.538;6.728;2022-10-16T12:34:25;101262.03;;;20.89;100.00
19086;BME280;9675;51.538;6.728;2022-10-16T12:37:08;101262.94;;;20.90;98.69
19086;BME280;9675;51.538;6.728;2022-10-16T12:39:37;101270.84;;;20.93;100.00
19086;BME280;9675;51.538;6.728;2022-10-16T12:42:19;101261.22;;;20.92;100.00
19086;BME280;9675;51.538;6.728;2022-10-16T12:44:47;101266.44;;;20.93;100.00
19086;BME280;9675;51.538;6.728;2022-10-16T12:47:22;101263.84;;;20.93;100.00
19086;BME280;9675;51.538;6.728;2022-10-16T12:49:52;101260.41;;;20.96;100.00
19086;BME280;9675;51.538;6.728;2022-10-16T12:52:35;101257.81;;;20.97;99.47
19086;BME280;9675;51.538;6.728;2022-10-16T12:55:05;101264.03;;;21.05;100.00
19086;BME280;9675;51.538;6.728;2022-10-16T12:58:00;101267.53;;;21.09;100.00
19086;BME280;9675;51.538;6.728;2022-10-16T13:00:43;101272.88;;;21.13;100.00
19086;BME280;9675;51.538;6.728;2022-10-16T13:04:00;101261.56;;;21.16;100.00
19086;BME280;9675;51.538;6.728;2022-10-16T13:06:40;101277.34;;;21.19;100.00
19086;BME280;9675;51.538;6.728;2022-10-16T13:09:30;101269.53;;;21.22;99.13
19086;BME280;9675;51.538;6.728;2022-10-16T13:12:18;101271.28;;;21.25;97.83
19086;BME280;9675;51.538;6.728;2022-10-16T13:15:21;101277.50;;;21.31;98.76
19086;BME280;9675;51.538;6.728;2022-10-16T13:18:02;101260.09;;;21.36;97.57
19086;BME280;9675;51.538;6.728;2022-10-16T13:20:42;101263.66;;;21.41;97.37
19086;BME280;9675;51.538;6.728;2022-10-16T13:23:23;101275.91;;;21.45;93.93
19086;BME280;9675;51.538;6.728;2022-10-16T13:26:12;101269.88;;;21.51;93.01
19086;BME280;9675;51.538;6.728;2022-10-16T13:28:43;101281.31;;;21.57;92.29
19086;BME280;9675;51.538;6.728;2022-10-16T13:31:17;101286.56;;;21.57;86.50
19086;BME280;9675;51.538;6.728;2022-10-16T13:33:48;101292.69;;;21.61;89.02
19086;BME280;9675;51.538;6.728;2022-10-16T13:36:21;101288.34;;;21.61;86.28
19086;BME280;9675;51.538;6.728;2022-10-16T13:38:59;101289.22;;;21.60;84.44
19086;BME280;9675;51.538;6.728;2022-10-16T13:41:28;101281.31;;;21.57;84.63
19086;BME280;9675;51.538;6.728;2022-10-16T13:43:56;101290.09;;;21.59;80.48
19086;BME280;9675;51.538;6.728;2022-10-16T13:46:25;101278.75;;;21.60;80.57
19086;BME280;9675;51.538;6.728;2022-10-16T13:49:01;101282.22;;;21.59;81.71
19086;BME280;9675;51.538;6.728;2022-10-16T13:51:31;101292.69;;;21.58;80.98
19086;BME280;9675;51.538;6.728;2022-10-16T13:53:59;101287.44;;;21.58;81.93
19086;BME280;9675;51.538;6.728;2022-10-16T13:56:30;101295.28;;;21.56;81.92
19086;BME280;9675;51.538;6.728;2022-10-16T13:59:02;101288.25;;;21.55;80.67
19086;BME280;9675;51.538;6.728;2022-10-16T14:01:33;101290.03;;;21.55;81.99
19086;BME280;9675;51.538;6.728;2022-10-16T14:04:04;101290.84;;;21.51;82.29
19086;BME280;9675;51.538;6.728;2022-10-16T14:06:33;101283.88;;;21.53;82.08
19086;BME280;9675;51.538;6.728;2022-10-16T14:09:05;101299.63;;;21.54;83.59
19086;BME280;9675;51.538;6.728;2022-10-16T14:11:45;101297.81;;;21.50;82.28
19086;BME280;9675;51.538;6.728;2022-10-16T14:14:15;101306.53;;;21.48;81.61
19086;BME280;9675;51.538;6.728;2022-10-16T14:16:43;101308.28;;;21.47;83.67
19086;BME280;9675;51.538;6.728;2022-10-16T14:19:20;101307.34;;;21.45;83.44
19086;BME280;9675;51.538;6.728;2022-10-16T14:21:50;101309.09;;;21.43;82.72
19086;BME280;9675;51.538;6.728;2022-10-16T14:24:27;101303.81;;;21.40;83.25
19086;BME280;9675;51.538;6.728;2022-10-16T14:26:55;101297.63;;;21.35;79.29
19086;BME280;9675;51.538;6.728;2022-10-16T14:29:25;101291.50;;;21.33;80.72
19086;BME280;9675;51.538;6.728;2022-10-16T14:31:58;101291.50;;;21.33;82.40
19086;BME280;9675;51.538;6.728;2022-10-16T14:34:30;101288.84;;;21.32;82.34
19086;BME280;9675;51.538;6.728;2022-10-16T14:37:01;101289.72;;;21.29;81.01
19086;BME280;9675;51.538;6.728;2022-10-16T14:39:33;101286.19;;;21.27;82.36
19086;BME280;9675;51.538;6.728;2022-10-16T14:42:02;101304.53;;;21.27;85.86
19086;BME280;9675;51.538;6.728;2022-10-16T14:44:33;101290.50;;;21.24;87.06
19086;BME280;9675;51.538;6.728;2022-10-16T14:47:09;101298.34;;;21.22;88.47
19086;BME280;9675;51.538;6.728;2022-10-16T14:49:41;101298.31;;;21.19;87.13
19086;BME280;9675;51.538;6.728;2022-10-16T14:52:11;101295.66;;;21.17;89.22
19086;BME280;9675;51.538;6.728;2022-10-16T14:54:39;101295.59;;;21.14;88.59
19086;BME280;9675;51.538;6.728;2022-10-16T14:57:18;101294.72;;;21.14;87.87
19086;BME280;9675;51.538;6.728;2022-10-16T14:59:46;101294.66;;;21.11;91.19
19086;BME280;9675;51.538;6.728;2022-10-16T15:02:23;101291.13;;;21.09;92.35
19086;BME280;9675;51.538;6.728;2022-10-16T15:04:52;101281.50;;;21.06;95.22
19086;BME280;9675;51.538;6.728;2022-10-16T15:07:19;101289.31;;;21.05;95.49
19086;BME280;9675;51.538;6.728;2022-10-16T15:09:46;101288.38;;;21.00;95.25
19086;BME280;9675;51.538;6.728;2022-10-16T15:12:15;101294.50;;;21.00;94.54
19086;BME280;9675;51.538;6.728;2022-10-16T15:14:43;101285.72;;;20.97;94.82
19086;BME280;9675;51.538;6.728;2022-10-16T15:17:11;101289.19;;;20.96;95.59
19086;BME280;9675;51.538;6.728;2022-10-16T15:19:38;101291.78;;;20.94;96.75
19086;BME280;9675;51.538;6.728;2022-10-16T15:22:06;101288.25;;;20.91;95.99
19086;BME280;9675;51.538;6.728;2022-10-16T15:24:33;101289.09;;;20.90;96.23
19086;BME280;9675;51.538;6.728;2022-10-16T15:27:00;101285.59;;;20.88;99.16
19086;BME280;9675;51.538;6.728;2022-10-16T15:29:28;101277.69;;;20.85;100.00
19086;BME280;9675;51.538;6.728;2022-10-16T15:31:55;101276.78;;;20.81;100.00
19086;BME280;9675;51.538;6.728;2022-10-16T15:34:22;101280.25;;;20.80;100.00
19086;BME280;9675;51.538;6.728;2022-10-16T15:36:49;101287.19;;;20.76;100.00
19086;BME280;9675;51.538;6.728;2022-10-16T15:39:19;101281.88;;;20.73;100.00
19086;BME280;9675;51.538;6.728;2022-10-16T15:41:47;101278.31;;;20.68;100.00
19086;BME280;9675;51.538;6.728;2022-10-16T15:44:16;101278.28;;;20.65;100.00
19086;BME280;9675;51.538;6.728;2022-10-16T15:46:46;101277.34;;;20.62;100.00
19086;BME280;9675;51.538;6.728;2022-10-16T15:49:13;101273.78;;;20.58;100.00
19086;BME280;9675;51.538;6.728;2022-10-16T15:51:42;101264.16;;;20.57;100.00
19086;BME280;9675;51.538;6.728;2022-10-16T15:54:09;101259.78;;;20.55;100.00
19086;BME280;9675;51.538;6.728;2022-10-16T15:56:36;101256.25;;;20.51;100.00
19086;BME280;9675;51.538;6.728;2022-10-16T15:59:04;101262.34;;;20.50;100.00
19086;BME280;9675;51.538;6.728;2022-10-16T16:01:32;101264.88;;;20.46;100.00
19086;BME280;9675;51.538;6.728;2022-10-16T16:04:01;101270.97;;;20.45;100.00
19086;BME280;9675;51.538;6.728;2022-10-16T16:06:29;101274.41;;;20.42;100.00
19086;BME280;9675;51.538;6.728;2022-10-16T16:08:58;101269.13;;;20.39;100.00
19086;BME280;9675;51.538;6.728;2022-10-16T16:11:25;101269.09;;;20.36;100.00
19086;BME280;9675;51.538;6.728;2022-10-16T16:13:52;101271.63;;;20.33;100.00
19086;BME280;9675;51.538;6.728;2022-10-16T16:16:20;101281.22;;;20.31;100.00
19086;BME280;9675;51.538;6.728;2022-10-16T16:18:47;101287.22;;;20.28;100.00
19086;BME280;9675;51.538;6.728;2022-10-16T16:21:16;101283.69;;;20.25;100.00
19086;BME280;9675;51.538;6.728;2022-10-16T16:23:43;101277.50;;;20.21;100.00
19086;BME280;9675;51.538;6.728;2022-10-16T16:26:13;101276.63;;;20.19;100.00
19086;BME280;9675;51.538;6.728;2022-10-16T16:28:42;101286.16;;;20.17;100.00
19086;BME280;9675;51.538;6.728;2022-10-16T16:31:09;101279.91;;;20.11;100.00
19086;BME280;9675;51.538;6.728;2022-10-16T16:33:37;101277.31;;;20.11;100.00
19086;BME280;9675;51.538;6.728;2022-10-16T16:36:07;101288.59;;;20.08;100.00
19086;BME280;9675;51.538;6.728;2022-10-16T16:38:35;101285.06;;;20.05;100.00
19086;BME280;9675;51.538;6.728;2022-10-16T16:41:11;101279.66;;;19.95;100.00
19086;BME280;9675;51.538;6.728;2022-10-16T16:43:39;101288.41;;;19.98;100.00
19086;BME280;9675;51.538;6.728;2022-10-16T16:46:06;101291.84;;;19.95;100.00
19086;BME280;9675;51.538;6.728;2022-10-16T16:48:33;101281.28;;;19.89;100.00
19086;BME280;9675;51.538;6.728;2022-10-16T16:51:03;101289.13;;;19.89;100.00
19086;BME280;9675;51.538;6.728;2022-10-16T16:53:34;101295.16;;;19.86;100.00
19086;BME280;9675;51.538;6.728;2022-10-16T16:56:02;101292.50;;;19.83;100.00
19086;BME280;9675;51.538;6.728;2022-10-16T16:58:30;101294.19;;;19.81;100.00
19086;BME280;9675;51.538;6.728;2022-10-16T17:00:58;101304.63;;;19.78;100.00
19086;BME280;9675;51.538;6.728;2022-10-16T17:03:26;101314.09;;;19.75;100.00
19086;BME280;9675;51.538;6.728;2022-10-16T17:05:57;101316.63;;;19.70;100.00
19086;BME280;9675;51.538;6.728;2022-10-16T17:08:24;101316.63;;;19.69;100.00
19086;BME280;9675;51.538;6.728;2022-10-16T17:10:52;101322.66;;;19.66;100.00
19086;BME280;9675;51.538;6.728;2022-10-16T17:13:21;101313.88;;;19.64;100.00
19086;BME280;9675;51.538;6.728;2022-10-16T17:15:49;101312.09;;;19.62;100.00
19086;BME280;9675;51.538;6.728;2022-10-16T17:18:18;101314.63;;;19.59;100.00
19086;BME280;9675;51.538;6.728;2022-10-16T17:20:46;101318.09;;;19.56;100.00
19086;BME280;9675;51.538;6.728;2022-10-16T17:23:15;101325.88;;;19.53;100.00